Terminal Aerodrome Forecast
Issued by NWS

Home | Current Version | Previous Version | Text Only | Print | Product List | Glossary On
Versions: 1 2 3 4 5 6 7 8 9 10 11 12 13 14 15 16 17 18 19 20 21 22 23 24 25 26 27 28 29 30 31 32
000
FTUS44 KFWD 311508 AAB
TAFAFW
TAF AMD
KAFW 311508Z 3115/0112 18010KT P6SM BKN060 BKN250
     FM312000 16011KT P6SM VCTS BKN040CB
      TEMPO 3120/3123 4SM -TSRA
     FM010200 15010KT P6SM BKN100 OVC250
     FM011000 14009KT 6SM -SHRA BR VCTS BKN025CB=

USA.gov is the U.S. government's official web portal to all federal, state and local government web resources and services.